Time;durP1;ratioP1;P1;durP2;ratioP2;P2;SDS_P1;SDS_P2;PMS_P1;PMS_P2;Temp;Humidity;BMP_temperature;BMP_pressure;BME280_temperature;BME280_humidity;BME280_pressure;Samples;Min_cycle;Max_cycle;Signal;HPM_P1;HPM_P2
2022/12/24 00:01:05;;;;;;;8.32;1.70;;;12.50;99.90;;;;;;5091649;28;20059;-73
2022/12/24 00:03:32;;;;;;;8.48;1.60;;;12.50;99.90;;;;;;5091329;28;20036;-73
2022/12/24 00:05:58;;;;;;;10.57;1.48;;;12.50;99.90;;;;;;5091985;28;20428;-73
2022/12/24 00:08:24;;;;;;;8.43;2.00;;;12.50;99.90;;;;;;5092822;28;20024;-73
2022/12/24 00:10:51;;;;;;;6.28;1.20;;;12.50;99.90;;;;;;5092099;28;20493;-73
2022/12/24 00:13:18;;;;;;;5.93;1.00;;;12.50;99.90;;;;;;5090486;28;20020;-74
2022/12/24 00:15:43;;;;;;;9.13;1.80;;;12.50;99.90;;;;;;5091448;28;20457;-73
2022/12/24 00:18:09;;;;;;;7.60;1.33;;;12.50;99.90;;;;;;5090893;28;20058;-73
2022/12/24 00:20:34;;;;;;;8.23;1.75;;;12.50;99.90;;;;;;5090914;28;20559;-73
2022/12/24 00:23:00;;;;;;;5.05;1.42;;;12.40;99.90;;;;;;5092954;28;20030;-73
2022/12/24 00:25:26;;;;;;;6.70;1.55;;;12.40;99.90;;;;;;5090969;28;20031;-73
2022/12/24 00:27:51;;;;;;;6.57;1.42;;;12.40;99.90;;;;;;5092693;28;20052;-73
2022/12/24 00:30:17;;;;;;;7.38;1.25;;;12.40;99.90;;;;;;5090798;28;20046;-77
2022/12/24 00:32:42;;;;;;;9.70;1.90;;;12.30;99.90;;;;;;5092373;28;20028;-73
2022/12/24 00:35:08;;;;;;;5.82;1.20;;;12.30;99.90;;;;;;5092548;28;20020;-73
2022/12/24 00:37:34;;;;;;;10.07;1.73;;;12.10;99.90;;;;;;5090412;28;20063;-73
2022/12/24 00:39:59;;;;;;;9.38;1.20;;;12.10;99.90;;;;;;5092438;28;20032;-73
2022/12/24 00:42:25;;;;;;;9.68;1.58;;;12.10;99.90;;;;;;5092250;28;20047;-73
2022/12/24 00:44:50;;;;;;;11.52;1.20;;;12.10;99.90;;;;;;5091175;28;20537;-73
2022/12/24 00:47:16;;;;;;;7.00;1.20;;;12.10;99.90;;;;;;5090912;28;20039;-76
2022/12/24 00:49:41;;;;;;;5.60;1.63;;;12.10;99.90;;;;;;5091035;28;20030;-72
2022/12/24 00:52:07;;;;;;;12.02;1.98;;;12.10;99.90;;;;;;5091205;28;20550;-73
2022/12/24 00:54:33;;;;;;;8.77;1.58;;;12.10;99.90;;;;;;5090613;28;20066;-73
2022/12/24 00:56:58;;;;;;;5.70;2.10;;;12.20;99.90;;;;;;5090756;28;20028;-73
2022/12/24 00:59:24;;;;;;;8.15;1.80;;;12.10;99.90;;;;;;5090609;28;20028;-73
2022/12/24 01:01:50;;;;;;;11.60;1.60;;;12.20;99.90;;;;;;5092480;28;20089;-73
2022/12/24 01:06:59;;;;;;;8.82;1.67;;;12.10;99.90;;;;;;5092446;28;20530;-73
2022/12/24 01:09:25;;;;;;;6.00;1.20;;;12.10;99.90;;;;;;5090559;28;20032;-73
2022/12/24 01:11:50;;;;;;;11.10;1.60;;;12.10;99.90;;;;;;5092352;28;20060;-73
2022/12/24 01:14:16;;;;;;;7.07;1.77;;;12.10;99.90;;;;;;5090522;28;20028;-77
2022/12/24 01:16:42;;;;;;;8.02;1.30;;;12.10;99.90;;;;;;5091727;28;20377;-73
2022/12/24 01:19:07;;;;;;;6.85;1.33;;;12.10;99.90;;;;;;5090600;28;20412;-73
2022/12/24 01:21:33;;;;;;;10.52;1.27;;;12.10;99.90;;;;;;5091392;28;20038;-73
2022/12/24 01:23:58;;;;;;;14.27;1.70;;;12.10;99.90;;;;;;5090746;28;20115;-73
2022/12/24 01:26:24;;;;;;;11.25;1.80;;;12.10;99.90;;;;;;5094114;28;20039;-73
2022/12/24 01:28:49;;;;;;;11.88;2.20;;;12.10;99.90;;;;;;5094656;28;20524;-73
2022/12/24 01:31:18;;;;;;;10.60;1.77;;;12.00;99.90;;;;;;5094655;28;20032;-73
2022/12/24 01:33:44;;;;;;;11.90;2.38;;;12.00;99.90;;;;;;5094286;28;20035;-73
2022/12/24 01:36:12;;;;;;;8.05;1.38;;;12.00;99.90;;;;;;5094352;28;20028;-73
2022/12/24 01:38:38;;;;;;;11.02;1.50;;;12.00;99.90;;;;;;5095122;28;20032;-73
2022/12/24 01:43:47;;;;;;;8.23;1.92;;;11.90;99.90;;;;;;5095544;28;20456;-73
2022/12/24 01:46:26;;;;;;;9.35;1.65;;;11.90;99.90;;;;;;5094241;28;20024;-73
2022/12/24 01:48:55;;;;;;;9.35;2.15;;;12.00;99.90;;;;;;5094360;28;20027;-73
2022/12/24 01:51:38;;;;;;;5.90;1.60;;;11.90;99.90;;;;;;5093626;28;20028;-77
2022/12/24 01:54:06;;;;;;;6.20;1.80;;;11.90;99.90;;;;;;5094120;28;20128;-73
2022/12/24 01:56:33;;;;;;;10.05;1.30;;;11.90;99.90;;;;;;5094320;28;20031;-73
2022/12/24 01:59:11;;;;;;;8.93;1.60;;;11.90;99.90;;;;;;5094043;28;20020;-73
2022/12/24 02:01:38;;;;;;;8.70;1.42;;;11.90;99.90;;;;;;5094629;28;20477;-74
2022/12/24 02:04:20;;;;;;;9.90;1.77;;;11.90;99.90;;;;;;5093953;28;20028;-74
2022/12/24 02:06:46;;;;;;;10.40;1.88;;;11.80;99.90;;;;;;5095032;28;20457;-74
2022/12/24 02:09:12;;;;;;;11.45;1.58;;;11.80;99.90;;;;;;5093845;28;20035;-74
2022/12/24 02:11:42;;;;;;;9.90;1.33;;;11.80;99.90;;;;;;5093037;28;20028;-74
2022/12/24 02:14:08;;;;;;;9.18;1.50;;;11.80;99.90;;;;;;5095241;28;20099;-74
2022/12/24 02:17:11;;;;;;;7.93;1.40;;;11.80;99.90;;;;;;5093076;28;20136;-74
2022/12/24 02:20:09;;;;;;;10.82;1.67;;;11.80;99.90;;;;;;5093257;28;20439;-74
2022/12/24 02:23:19;;;;;;;8.43;1.25;;;11.80;99.90;;;;;;5048841;28;20029;-74
2022/12/24 02:26:14;;;;;;;15.27;1.65;;;11.80;99.90;;;;;;5031994;28;20036;-74
2022/12/24 02:29:17;;;;;;;7.38;1.92;;;11.80;99.90;;;;;;5032070;28;20037;-74
2022/12/24 02:32:01;;;;;;;5.60;1.60;;;11.80;99.90;;;;;;5089105;28;20032;-74
2022/12/24 02:34:48;;;;;;;5.95;1.30;;;11.80;99.90;;;;;;5093414;28;20032;-74
2022/12/24 02:37:25;;;;;;;8.10;1.67;;;11.80;99.90;;;;;;5093576;28;20503;-73
2022/12/24 02:40:02;;;;;;;8.90;2.13;;;11.80;99.90;;;;;;5095433;28;20032;-74
2022/12/24 02:42:36;;;;;;;10.07;1.75;;;11.90;99.90;;;;;;5093206;28;20028;-74
2022/12/24 02:45:04;;;;;;;13.63;1.75;;;11.80;99.90;;;;;;5092961;28;20028;-74
2022/12/24 02:47:31;;;;;;;7.68;1.30;;;11.80;99.90;;;;;;5093970;28;20050;-74
2022/12/24 02:49:59;;;;;;;4.18;1.23;;;11.80;99.90;;;;;;5094506;28;20024;-74
2022/12/24 02:52:30;;;;;;;9.63;1.80;;;11.90;99.90;;;;;;5092822;28;20060;-75
2022/12/24 02:54:57;;;;;;;13.13;1.88;;;11.90;99.90;;;;;;5093320;28;20388;-74
2022/12/24 02:57:40;;;;;;;7.60;1.63;;;11.90;99.90;;;;;;5092780;28;20477;-77
2022/12/24 03:00:12;;;;;;;7.43;1.67;;;11.90;99.90;;;;;;5093083;28;20523;-74
2022/12/24 03:02:49;;;;;;;;;;;11.90;99.90;;;;;;5093052;28;20433;-74
2022/12/24 03:05:43;;;;;;;7.50;1.60;;;11.90;99.90;;;;;;5093015;28;19911;-74
2022/12/24 03:08:24;;;;;;;7.28;1.80;;;11.90;99.90;;;;;;5094206;28;20047;-75
2022/12/24 03:11:02;;;;;;;7.57;1.85;;;11.90;99.90;;;;;;5092578;28;20028;-75
2022/12/24 03:13:28;;;;;;;14.25;1.88;;;11.90;99.90;;;;;;5093438;28;20021;-75
2022/12/24 03:15:54;;;;;;;9.95;1.50;;;11.90;99.90;;;;;;5092540;28;20150;-74
2022/12/24 03:18:25;;;;;;;11.07;1.83;;;12.00;99.90;;;;;;5091961;28;20143;-74
2022/12/24 03:21:02;;;;;;;9.60;1.50;;;12.00;99.90;;;;;;5092024;28;20036;-75
2022/12/24 03:23:28;;;;;;;8.45;1.60;;;12.00;99.90;;;;;;5091951;28;20381;-75
2022/12/24 03:25:54;;;;;;;10.25;1.95;;;12.00;99.90;;;;;;5093833;28;20035;-74
2022/12/24 03:28:25;;;;;;;10.23;1.40;;;12.00;99.90;;;;;;5092261;28;20144;-74
2022/12/24 03:30:51;;;;;;;10.60;1.67;;;12.00;99.90;;;;;;5092343;28;20056;-74
2022/12/24 03:33:17;;;;;;;9.30;1.60;;;12.00;99.90;;;;;;5093116;28;20028;-74
2022/12/24 03:35:43;;;;;;;11.98;1.85;;;12.00;99.90;;;;;;5094697;28;20039;-74
2022/12/24 03:38:09;;;;;;;15.43;1.95;;;12.00;99.90;;;;;;5092289;28;20032;-74
2022/12/24 03:40:34;;;;;;;8.55;1.35;;;12.00;99.90;;;;;;5092750;28;20032;-74
2022/12/24 03:43:00;;;;;;;7.50;1.77;;;11.90;99.90;;;;;;5093377;28;20036;-75
2022/12/24 03:45:26;;;;;;;9.55;1.60;;;11.90;99.90;;;;;;5092844;28;20036;-78
2022/12/24 03:47:51;;;;;;;13.52;1.77;;;11.90;99.90;;;;;;5092325;28;20432;-74
2022/12/24 03:50:17;;;;;;;9.80;1.83;;;11.90;99.90;;;;;;5092059;28;20028;-74
2022/12/24 03:52:42;;;;;;;9.05;1.95;;;11.90;99.90;;;;;;5091450;28;20378;-74
2022/12/24 03:55:08;;;;;;;9.70;1.65;;;11.90;99.90;;;;;;5092240;28;20024;-74
2022/12/24 03:57:34;;;;;;;13.57;2.40;;;11.90;99.90;;;;;;5091358;28;20024;-74
2022/12/24 03:59:59;;;;;;;13.07;2.13;;;11.90;99.90;;;;;;5091898;28;20514;-74
2022/12/24 04:02:25;;;;;;;9.88;2.00;;;11.90;99.90;;;;;;5091643;28;20024;-75
2022/12/24 04:04:51;;;;;;;10.10;2.15;;;11.80;99.90;;;;;;5092821;28;20372;-74
2022/12/24 04:07:16;;;;;;;10.60;2.05;;;11.80;99.90;;;;;;5092976;28;20028;-74
2022/12/24 04:09:42;;;;;;;14.88;2.10;;;11.70;99.90;;;;;;5092307;28;20032;-74
2022/12/24 04:12:07;;;;;;;8.32;1.90;;;11.70;99.90;;;;;;5091301;28;20504;-74
2022/12/24 04:14:33;;;;;;;13.02;2.45;;;11.70;99.90;;;;;;5091208;28;20032;-74
2022/12/24 04:16:58;;;;;;;10.77;2.63;;;11.70;99.90;;;;;;5091833;28;20469;-73
2022/12/24 04:19:24;;;;;;;8.35;1.80;;;11.80;99.90;;;;;;5092533;28;20068;-74
2022/12/24 04:21:51;;;;;;;13.27;2.40;;;11.70;99.90;;;;;;5092123;28;20079;-74
2022/12/24 04:24:17;;;;;;;10.10;1.70;;;11.70;99.90;;;;;;5091761;28;20063;-74
2022/12/24 04:26:42;;;;;;;10.63;1.63;;;11.70;99.90;;;;;;5091043;28;20477;-74
2022/12/24 04:29:08;;;;;;;12.25;2.25;;;11.80;99.90;;;;;;5092930;28;20020;-74
2022/12/24 04:31:34;;;;;;;13.85;1.88;;;11.70;99.90;;;;;;5092277;28;20491;-74
2022/12/24 04:33:59;;;;;;;18.20;1.98;;;11.80;99.90;;;;;;5091710;28;20028;-74
2022/12/24 04:36:25;;;;;;;9.82;1.88;;;11.70;99.90;;;;;;5091394;28;20028;-74
2022/12/24 04:38:50;;;;;;;10.88;1.70;;;11.70;99.90;;;;;;5092177;28;20453;-74
2022/12/24 04:41:21;;;;;;;12.02;1.90;;;11.70;99.90;;;;;;5092688;28;20028;-74
2022/12/24 04:43:47;;;;;;;13.93;2.42;;;11.70;99.90;;;;;;5090689;28;20115;-74
2022/12/24 04:46:17;;;;;;;8.20;1.85;;;11.70;99.90;;;;;;5092334;28;20115;-74
2022/12/24 04:48:44;;;;;;;16.92;2.00;;;11.70;99.90;;;;;;5092013;28;20054;-74
2022/12/24 04:51:10;;;;;;;7.43;2.00;;;11.70;99.90;;;;;;5091182;28;20074;-74
2022/12/24 04:53:37;;;;;;;17.70;2.05;;;11.70;99.90;;;;;;5091837;28;20040;-74
2022/12/24 04:56:03;;;;;;;14.25;2.15;;;11.70;99.90;;;;;;5090943;28;20032;-74
2022/12/24 04:58:29;;;;;;;13.38;2.25;;;11.60;99.90;;;;;;5091757;28;20086;-77
2022/12/24 05:00:54;;;;;;;11.30;2.28;;;11.70;99.90;;;;;;5094383;28;20469;-74
2022/12/24 05:03:20;;;;;;;16.50;2.60;;;11.70;99.90;;;;;;5094962;28;20065;-74
2022/12/24 05:05:46;;;;;;;12.80;2.08;;;11.70;99.90;;;;;;5094392;28;20031;-74
2022/12/24 05:08:12;;;;;;;12.65;1.95;;;11.70;99.90;;;;;;5096241;28;20461;-74
2022/12/24 05:10:38;;;;;;;10.18;2.00;;;11.60;99.90;;;;;;5093716;28;20031;-74
2022/12/24 05:13:04;;;;;;;11.98;2.30;;;11.70;99.90;;;;;;5102186;28;20053;-74
2022/12/24 05:15:30;;;;;;;11.52;1.95;;;11.70;99.90;;;;;;5115096;28;20480;-78
2022/12/24 05:17:57;;;;;;;19.00;2.47;;;11.60;99.90;;;;;;5114941;28;20511;-74
2022/12/24 05:20:22;;;;;;;11.57;2.25;;;11.60;99.90;;;;;;5115152;28;20038;-74
2022/12/24 05:28:21;;;;;;;10.50;1.48;;;11.70;99.90;;;;;;5116594;28;20458;-74
2022/12/24 05:30:47;;;;;;;12.05;1.50;;;11.60;99.90;;;;;;5114654;28;20039;-74
2022/12/24 05:33:12;;;;;;;10.30;1.80;;;11.60;99.90;;;;;;5116636;28;20098;-74
2022/12/24 05:35:38;;;;;;;9.52;1.92;;;11.60;99.90;;;;;;5115896;28;20026;-74
2022/12/24 05:38:03;;;;;;;9.77;1.85;;;11.60;99.90;;;;;;5116246;28;20027;-74
2022/12/24 05:40:29;;;;;;;12.02;2.45;;;11.60;99.90;;;;;;5114954;28;20080;-74
2022/12/24 05:42:55;;;;;;;11.63;1.75;;;11.60;99.90;;;;;;5114424;28;20381;-74
2022/12/24 05:45:20;;;;;;;17.10;2.38;;;11.50;99.90;;;;;;5116334;28;20059;-74
2022/12/24 05:47:46;;;;;;;15.65;1.92;;;11.60;99.90;;;;;;5115620;28;20426;-74
2022/12/24 05:50:12;;;;;;;9.70;1.70;;;11.60;99.90;;;;;;5114923;28;20039;-74
2022/12/24 05:52:37;;;;;;;14.73;1.90;;;11.50;99.90;;;;;;5114186;28;20024;-74
2022/12/24 05:55:03;;;;;;;9.90;2.20;;;11.60;99.90;;;;;;5114712;28;20075;-74
2022/12/24 05:57:29;;;;;;;17.52;1.90;;;11.60;99.90;;;;;;5114672;28;20471;-74
2022/12/24 05:59:54;;;;;;;14.38;2.70;;;11.60;99.90;;;;;;5114105;28;20039;-74
2022/12/24 06:02:20;;;;;;;7.22;1.67;;;11.60;99.90;;;;;;5114528;28;20031;-75
2022/12/24 06:04:45;;;;;;;9.23;1.70;;;11.60;99.90;;;;;;5115487;28;20350;-74
2022/12/24 06:07:11;;;;;;;13.02;2.53;;;11.60;99.90;;;;;;5115384;28;20031;-74
2022/12/24 06:09:36;;;;;;;14.60;2.05;;;11.70;99.90;;;;;;5115068;28;20465;-73
2022/12/24 06:12:02;;;;;;;15.43;1.77;;;11.70;99.90;;;;;;5114092;28;20024;-73
2022/12/24 06:14:28;;;;;;;11.65;1.75;;;11.70;99.90;;;;;;5114218;28;20069;-73
2022/12/24 06:16:53;;;;;;;10.48;1.63;;;11.70;99.90;;;;;;5113622;28;20049;-73
2022/12/24 06:19:19;;;;;;;12.60;2.33;;;11.70;99.90;;;;;;5114243;28;20408;-73
2022/12/24 06:21:45;;;;;;;11.95;1.95;;;11.70;99.90;;;;;;5114874;28;20081;-73
2022/12/24 06:24:10;;;;;;;9.52;1.60;;;11.70;99.90;;;;;;5115056;28;20061;-73
2022/12/24 06:26:36;;;;;;;12.48;1.52;;;11.70;99.90;;;;;;5114830;28;20039;-73
2022/12/24 06:29:01;;;;;;;13.07;2.30;;;11.70;99.90;;;;;;5113947;28;20138;-74
2022/12/24 06:31:27;;;;;;;11.80;1.77;;;11.70;99.90;;;;;;5114135;28;20031;-73
2022/12/24 06:33:52;;;;;;;10.95;2.05;;;11.70;99.90;;;;;;5113391;28;20376;-73
2022/12/24 06:36:21;;;;;;;10.77;1.50;;;11.70;99.90;;;;;;5113706;28;20026;-73
2022/12/24 06:38:47;;;;;;;9.70;2.10;;;11.80;99.90;;;;;;5113486;28;20419;-73
2022/12/24 06:41:14;;;;;;;10.80;1.90;;;11.70;99.90;;;;;;5114851;27;20035;-73
2022/12/24 06:43:49;;;;;;;12.25;1.55;;;11.80;99.90;;;;;;5113154;28;20031;-73
2022/12/24 06:46:15;;;;;;;14.55;2.67;;;11.70;99.90;;;;;;5113594;28;20472;-73
2022/12/24 06:48:45;;;;;;;8.93;1.75;;;11.70;99.90;;;;;;5113111;28;20020;-73
2022/12/24 06:51:11;;;;;;;9.38;1.48;;;11.70;99.90;;;;;;5113579;28;20052;-73
2022/12/24 06:53:37;;;;;;;14.07;2.10;;;11.70;99.90;;;;;;5113019;28;20028;-73
2022/12/24 06:56:04;;;;;;;12.05;1.90;;;11.80;99.90;;;;;;5114660;28;20081;-73
2022/12/24 06:58:31;;;;;;;14.75;1.90;;;11.80;99.90;;;;;;5113378;28;20365;-73
2022/12/24 07:00:57;;;;;;;10.60;1.80;;;11.80;99.90;;;;;;5112874;28;20536;-73
2022/12/24 07:03:22;;;;;;;10.30;1.67;;;11.80;99.90;;;;;;5113282;28;20127;-73
2022/12/24 07:05:48;;;;;;;11.88;1.88;;;11.80;99.90;;;;;;5112636;28;20419;-73
2022/12/24 07:08:13;;;;;;;8.90;2.15;;;11.80;99.90;;;;;;5113521;28;20039;-73
2022/12/24 07:10:39;;;;;;;14.68;2.45;;;11.70;99.90;;;;;;5113898;28;20457;-73
2022/12/24 07:13:04;;;;;;;9.43;1.60;;;11.70;99.90;;;;;;5113007;28;20016;-73
2022/12/24 07:15:30;;;;;;;12.05;2.22;;;11.80;99.90;;;;;;5113117;28;20035;-73
2022/12/24 07:17:55;;;;;;;17.40;2.20;;;11.70;99.90;;;;;;5113706;28;20481;-73
2022/12/24 07:20:21;;;;;;;11.75;2.45;;;11.70;99.90;;;;;;5112993;28;20035;-73
2022/12/24 07:22:47;;;;;;;6.95;1.45;;;11.70;99.90;;;;;;5111473;28;20385;-73
2022/12/24 07:25:12;;;;;;;11.82;2.20;;;11.70;99.90;;;;;;5112845;28;20020;-73
2022/12/24 07:27:38;;;;;;;12.70;1.80;;;11.60;99.90;;;;;;5112312;28;20023;-75
2022/12/24 07:30:05;;;;;;;12.55;2.08;;;11.60;99.90;;;;;;5114086;28;20095;-72
2022/12/24 07:32:30;;;;;;;17.45;2.13;;;11.70;99.90;;;;;;5114301;28;20056;-73
2022/12/24 07:34:56;;;;;;;14.45;1.80;;;11.70;99.90;;;;;;5112307;28;20063;-73
2022/12/24 07:37:21;;;;;;;16.02;2.97;;;11.70;99.90;;;;;;5112607;28;20027;-73
2022/12/24 07:39:47;;;;;;;16.73;2.55;;;11.60;99.90;;;;;;5112225;28;20031;-73
2022/12/24 07:42:13;;;;;;;11.48;2.13;;;11.60;99.90;;;;;;5112656;28;20023;-73
2022/12/24 07:44:38;;;;;;;15.80;1.80;;;11.50;99.90;;;;;;5113403;28;20038;-78
2022/12/24 07:47:04;;;;;;;9.27;2.38;;;11.50;99.90;;;;;;5112485;28;20028;-73
2022/12/24 07:49:30;;;;;;;15.95;2.75;;;11.40;99.90;;;;;;5112419;28;20019;-73
2022/12/24 07:51:55;;;;;;;9.38;2.10;;;11.40;99.90;;;;;;5111564;28;20031;-74
2022/12/24 07:54:21;;;;;;;15.77;2.92;;;11.40;99.90;;;;;;5113608;28;20156;-73
2022/12/24 07:56:46;;;;;;;13.10;2.25;;;11.40;99.90;;;;;;5111904;28;20362;-73
2022/12/24 07:59:12;;;;;;;13.70;2.20;;;11.30;99.90;;;;;;5113919;28;20384;-73
2022/12/24 08:01:38;;;;;;;15.13;2.67;;;11.30;99.90;;;;;;5112431;28;20023;-73
2022/12/24 08:04:04;;;;;;;11.13;2.22;;;11.30;99.90;;;;;;5111734;28;20042;-73
2022/12/24 08:06:29;;;;;;;13.88;3.45;;;11.30;99.90;;;;;;5113534;28;20020;-73
2022/12/24 08:08:55;;;;;;;16.33;4.05;;;11.30;99.90;;;;;;5112947;28;20402;-73
2022/12/24 08:11:21;;;;;;;12.80;2.95;;;11.30;99.90;;;;;;5111880;28;20119;-73
2022/12/24 08:13:46;;;;;;;13.32;2.67;;;11.30;99.90;;;;;;5111466;28;20065;-74
2022/12/24 08:16:12;;;;;;;18.83;2.10;;;11.30;99.90;;;;;;5112060;28;20034;-74
2022/12/24 08:18:37;;;;;;;16.45;2.22;;;11.30;99.90;;;;;;5113234;28;20052;-73
2022/12/24 08:21:06;;;;;;;12.57;2.50;;;11.30;99.90;;;;;;5111557;28;20024;-74
2022/12/24 08:23:32;;;;;;;13.00;2.17;;;11.40;99.90;;;;;;5112078;28;20038;-73
2022/12/24 08:25:57;;;;;;;11.48;1.90;;;11.40;99.90;;;;;;5112538;28;20027;-73
2022/12/24 08:28:23;;;;;;;10.82;1.75;;;11.40;99.90;;;;;;5112010;28;20465;-73
2022/12/24 08:30:50;;;;;;;12.32;2.30;;;11.50;99.90;;;;;;5111161;28;20055;-73
2022/12/24 08:33:16;;;;;;;20.45;2.80;;;11.40;99.90;;;;;;5112412;28;20023;-73
2022/12/24 08:35:47;;;;;;;13.90;1.92;;;11.50;99.90;;;;;;5116200;28;20160;-78
2022/12/24 08:38:13;;;;;;;12.23;2.30;;;11.50;99.90;;;;;;5116278;28;20027;-73
2022/12/24 08:40:38;;;;;;;17.42;2.17;;;11.50;99.90;;;;;;5116095;28;20031;-73
2022/12/24 08:43:04;;;;;;;13.02;2.85;;;11.50;99.90;;;;;;5115088;28;20384;-73
2022/12/24 08:45:29;;;;;;;19.48;2.85;;;11.50;99.90;;;;;;5115934;28;20027;-73
2022/12/24 08:47:57;;;;;;;15.70;2.78;;;11.60;99.90;;;;;;5116708;28;20024;-73
2022/12/24 08:50:23;;;;;;;9.00;2.47;;;11.60;99.90;;;;;;5115933;28;20050;-73
2022/12/24 08:52:48;;;;;;;13.40;2.20;;;11.60;99.90;;;;;;5115341;28;20457;-74
2022/12/24 08:55:14;;;;;;;10.65;2.05;;;11.60;99.90;;;;;;5115799;28;20074;-73
2022/12/24 08:57:39;;;;;;;13.35;2.20;;;11.60;99.90;;;;;;5115412;28;20031;-73
2022/12/24 09:00:06;;;;;;;11.23;1.95;;;11.70;99.90;;;;;;5116512;28;20032;-73
2022/12/24 09:02:32;;;;;;;10.88;1.92;;;11.60;99.90;;;;;;5116979;27;20023;-73
2022/12/24 09:04:57;;;;;;;15.75;2.08;;;11.70;99.90;;;;;;5115196;28;20382;-73
2022/12/24 09:07:24;;;;;;;14.68;2.25;;;11.70;99.90;;;;;;5116808;28;20449;-73
2022/12/24 09:09:49;;;;;;;15.63;3.35;;;11.80;99.90;;;;;;5115098;28;20065;-73
2022/12/24 09:12:15;;;;;;;10.82;2.40;;;11.80;99.90;;;;;;5115409;28;20019;-74
2022/12/24 09:14:40;;;;;;;10.90;2.17;;;11.90;99.90;;;;;;5117183;28;20034;-73
2022/12/24 09:17:06;;;;;;;9.82;1.83;;;11.90;99.90;;;;;;5114818;28;20112;-73
2022/12/24 09:19:32;;;;;;;8.48;2.05;;;11.90;99.90;;;;;;5115158;28;20047;-73
2022/12/24 09:21:57;;;;;;;16.90;2.30;;;11.90;99.90;;;;;;5114919;28;20024;-73
2022/12/24 09:24:23;;;;;;;15.05;2.28;;;11.90;99.90;;;;;;5115309;28;20380;-73
2022/12/24 09:26:49;;;;;;;7.93;1.60;;;12.00;99.90;;;;;;5116026;28;20028;-74
2022/12/24 09:29:15;;;;;;;14.68;1.92;;;12.00;99.90;;;;;;5115479;28;20038;-73
2022/12/24 09:31:41;;;;;;;10.88;1.63;;;11.90;99.90;;;;;;5115289;28;20023;-74
2022/12/24 09:34:08;;;;;;;12.45;2.67;;;11.90;99.90;;;;;;5115832;28;20074;-73
2022/12/24 09:36:34;;;;;;;8.60;1.88;;;11.90;99.90;;;;;;5115014;28;20055;-73
2022/12/24 09:39:00;;;;;;;11.80;1.70;;;11.90;99.90;;;;;;5114407;28;20035;-74
2022/12/24 09:41:34;;;;;;;12.00;2.33;;;11.90;99.90;;;;;;5114912;28;20069;-73
2022/12/24 09:44:10;;;;;;;8.77;1.40;;;11.80;99.90;;;;;;5114307;28;20024;-73
2022/12/24 09:46:40;;;;;;;11.90;2.05;;;11.70;99.90;;;;;;5114963;28;20032;-73
2022/12/24 09:49:15;;;;;;;14.95;1.92;;;11.70;99.90;;;;;;5115372;28;20031;-72
2022/12/24 09:51:46;;;;;;;10.13;1.70;;;11.60;99.90;;;;;;5114388;28;20110;-73
2022/12/24 09:54:20;;;;;;;12.93;1.90;;;11.60;99.90;;;;;;5115911;28;20050;-73
2022/12/24 09:56:47;;;;;;;17.70;2.47;;;11.60;99.90;;;;;;5114428;28;20042;-77
2022/12/24 09:59:21;;;;;;;14.00;2.15;;;11.50;99.90;;;;;;5115847;28;20089;-74
2022/12/24 10:01:50;;;;;;;16.20;2.47;;;11.50;99.90;;;;;;5114021;28;20024;-75
2022/12/24 10:04:25;;;;;;;8.48;1.77;;;11.50;99.90;;;;;;5114389;28;20484;-74
2022/12/24 10:07:15;;;;;;;10.05;2.05;;;11.50;99.90;;;;;;5114040;28;20090;-74
2022/12/24 10:10:19;;;;;;;14.80;1.90;;;11.50;99.90;;;;;;5114503;28;20047;-73
2022/12/24 10:12:48;;;;;;;9.90;2.03;;;11.50;99.90;;;;;;5114418;28;20031;-73
2022/12/24 10:15:16;;;;;;;15.57;1.83;;;11.40;99.90;;;;;;5115701;28;20519;-73
2022/12/24 10:17:51;;;;;;;17.17;2.33;;;11.50;99.90;;;;;;5113529;28;20056;-73
2022/12/24 10:20:56;;;;;;;10.63;2.47;;;11.50;99.90;;;;;;5115881;27;20038;-73
2022/12/24 10:23:24;;;;;;;15.52;2.42;;;11.50;99.90;;;;;;5114753;28;20031;-73
2022/12/24 10:26:11;;;;;;;13.50;2.45;;;11.40;99.90;;;;;;5113576;28;20097;-73
2022/12/24 10:28:40;;;;;;;9.43;1.67;;;11.40;99.90;;;;;;5114076;28;20483;-73
2022/12/24 10:31:07;;;;;;;14.57;2.22;;;11.40;99.90;;;;;;5113455;28;20096;-73
2022/12/24 10:33:46;;;;;;;12.70;2.13;;;11.50;99.90;;;;;;5113890;28;20115;-73
2022/12/24 10:36:18;;;;;;;13.57;2.10;;;11.40;99.90;;;;;;5113349;28;20027;-73
2022/12/24 10:38:44;;;;;;;;;;;11.50;99.90;;;;;;5114130;28;20407;-73
2022/12/24 10:41:10;;;;;;;8.63;1.45;;;11.50;99.90;;;;;;5112883;28;19912;-73
2022/12/24 10:43:38;;;;;;;12.02;1.90;;;11.50;99.90;;;;;;5113811;28;20129;-73
2022/12/24 10:46:15;;;;;;;9.45;2.25;;;11.50;99.90;;;;;;5113254;28;20036;-73
2022/12/24 10:48:45;;;;;;;13.05;1.70;;;11.50;99.90;;;;;;5114761;28;20031;-74
2022/12/24 10:51:26;;;;;;;15.38;2.83;;;11.50;99.90;;;;;;5113154;28;20067;-74
2022/12/24 10:54:07;;;;;;;18.00;2.87;;;11.50;99.90;;;;;;5113253;28;20024;-74
2022/12/24 10:56:42;;;;;;;13.88;2.30;;;11.50;99.90;;;;;;5113270;28;20115;-73
2022/12/24 10:59:47;;;;;;;16.38;2.58;;;11.60;99.90;;;;;;5112937;28;20038;-73
2022/12/24 11:02:34;;;;;;;16.23;2.20;;;11.60;99.90;;;;;;5107900;28;20078;-74
2022/12/24 11:05:02;;;;;;;15.45;2.90;;;11.60;99.90;;;;;;5113006;28;20102;-74
2022/12/24 11:07:30;;;;;;;22.20;3.05;;;11.50;99.90;;;;;;5113282;28;20047;-73
2022/12/24 11:10:06;;;;;;;17.90;2.55;;;11.50;99.90;;;;;;5112820;28;20096;-74
2022/12/24 11:12:36;;;;;;;16.08;2.50;;;11.60;99.90;;;;;;5113179;28;20023;-73
2022/12/24 11:15:06;;;;;;;12.77;1.95;;;11.60;99.90;;;;;;5112615;28;20028;-73
2022/12/24 11:17:32;;;;;;;16.77;2.90;;;11.60;99.90;;;;;;5113911;28;20478;-74
2022/12/24 11:19:59;;;;;;;12.30;2.13;;;11.70;99.90;;;;;;5113886;28;20027;-73
2022/12/24 11:22:28;;;;;;;12.70;1.83;;;11.70;99.90;;;;;;5114353;28;20023;-74
2022/12/24 11:24:59;;;;;;;12.52;2.08;;;11.80;99.90;;;;;;5113798;28;20110;-74
2022/12/24 11:27:48;;;;;;;11.30;2.20;;;11.80;99.90;;;;;;5112643;28;20020;-73
2022/12/24 11:30:13;;;;;;;13.80;2.22;;;11.80;99.90;;;;;;5112400;28;20639;-74
2022/12/24 11:32:43;;;;;;;9.75;1.80;;;11.90;99.90;;;;;;5112658;28;20027;-74
2022/12/24 11:35:21;;;;;;;14.48;1.98;;;11.90;99.90;;;;;;5112354;28;20468;-73
2022/12/24 11:38:11;;;;;;;15.93;3.25;;;12.00;99.90;;;;;;5112742;28;20054;-73
2022/12/24 11:40:41;;;;;;;12.35;2.33;;;12.00;99.90;;;;;;5100592;28;20038;-74
2022/12/24 11:43:18;;;;;;;7.47;1.92;;;12.00;99.90;;;;;;5112118;28;20062;-73
2022/12/24 11:46:11;;;;;;;14.60;1.98;;;12.00;99.90;;;;;;5112828;28;20027;-74
2022/12/24 11:48:36;;;;;;;9.15;2.45;;;12.00;99.90;;;;;;5112011;28;20031;-73
2022/12/24 11:51:04;;;;;;;13.45;2.85;;;11.90;99.90;;;;;;5113573;28;20038;-73
2022/12/24 11:53:42;;;;;;;17.23;3.38;;;11.90;99.90;;;;;;5112407;28;20027;-74
2022/12/24 11:56:23;;;;;;;12.73;2.80;;;11.90;99.90;;;;;;5111898;28;20023;-73
2022/12/24 11:58:55;;;;;;;14.52;2.60;;;11.90;99.90;;;;;;5112389;28;20028;-73
2022/12/24 12:01:32;;;;;;;11.20;2.17;;;12.00;99.90;;;;;;5112630;28;20028;-73
2022/12/24 12:04:01;;;;;;;12.77;3.03;;;12.10;99.90;;;;;;5113053;28;20026;-74
2022/12/24 12:06:37;;;;;;;15.93;2.85;;;12.10;99.90;;;;;;5112325;28;20019;-73
2022/12/24 12:09:11;;;;;;;14.63;2.50;;;12.20;99.90;;;;;;5111209;28;20403;-73
2022/12/24 12:11:40;;;;;;;10.98;2.00;;;12.40;99.90;;;;;;5112306;28;20422;-73
2022/12/24 12:14:15;;;;;;;13.73;2.42;;;12.60;99.90;;;;;;5111307;28;20537;-73
2022/12/24 12:17:19;;;;;;;12.48;2.28;;;12.70;99.90;;;;;;5112054;28;20511;-73
2022/12/24 12:19:52;;;;;;;12.80;1.92;;;13.00;99.90;;;;;;5110780;28;20047;-73
2022/12/24 12:22:48;;;;;;;19.67;2.33;;;13.10;99.90;;;;;;5111676;28;20525;-73
2022/12/24 12:25:26;;;;;;;13.60;3.03;;;13.00;99.90;;;;;;5110524;28;20035;-73
2022/12/24 12:27:55;;;;;;;8.88;2.10;;;13.00;99.90;;;;;;5111941;28;20066;-73
2022/12/24 12:30:23;;;;;;;17.00;3.83;;;12.90;99.90;;;;;;5111897;28;20023;-73
2022/12/24 12:33:12;;;;;;;11.75;2.03;;;12.70;99.90;;;;;;5111892;28;20028;-73
2022/12/24 12:35:42;;;;;;;8.05;2.22;;;12.60;99.90;;;;;;5112008;28;20028;-73
2022/12/24 12:38:15;;;;;;;15.32;1.98;;;12.60;99.90;;;;;;5111272;28;20058;-73
2022/12/24 12:41:17;;;;;;;7.35;2.17;;;12.50;99.90;;;;;;5111583;28;20059;-73
2022/12/24 12:44:02;;;;;;;18.65;3.22;;;12.50;99.90;;;;;;5111842;28;20027;-73
2022/12/24 12:46:56;;;;;;;18.52;2.47;;;12.50;99.90;;;;;;5111794;28;20032;-73
2022/12/24 12:49:49;;;;;;;11.93;2.25;;;12.50;99.90;;;;;;5111635;28;20097;-73
2022/12/24 12:52:26;;;;;;;13.18;2.50;;;12.60;99.90;;;;;;5111311;28;20020;-73
2022/12/24 12:54:58;;;;;;;10.35;2.45;;;12.60;99.90;;;;;;5111760;28;20031;-73
2022/12/24 12:57:27;;;;;;;15.05;2.55;;;12.60;99.90;;;;;;5111586;28;20032;-73
2022/12/24 12:59:57;;;;;;;10.73;2.78;;;12.70;99.90;;;;;;5111761;28;20028;-73
2022/12/24 13:02:42;;;;;;;9.63;2.67;;;12.70;99.90;;;;;;5111694;28;20027;-73
2022/12/24 13:05:26;;;;;;;11.95;2.53;;;12.80;99.90;;;;;;5111221;28;20358;-73